Latest Coastal Weather Observations for Maroochydore

IDQ60701

Issued at 12:11 pm EST Thursday 30 July 2015 (issued every 10 minutes, with the page automatically refreshed every 10 minutes)

About coastal observations | Map of coastal stations | Coastal observations for QLD | Marine services | Other Formats
Station Details ID: 040861 Name: SUNSHINE COAST AIRPORT Lat: -26.60 Lon: 153.09 Height: 3.3 m
Data from the previous 72 hours. | See also: Recent months at Maroochydore
Date/Time
EST
Temp

°C
Wind Pressure Rain
since 9am
mm
Weather Cloud Vis
km
Sea
Height
m
Swell
Dir
 
Speed
knots
Gust
knots
hPa Trend Height
m
Period
s
Dir
30/12:00pm 21.0 ESE 8 11 1026.1 - 0.0 - - 10 - - - -
30/11:30am 21.1 SSE 9 12 1026.4 - 0.0 - - 10 - - - -
30/10:30am 20.1 S 10 12 1027.2 - 0.0 - - 10 - - - -
30/09:30am 18.0 SSW 10 13 1027.6 - 0.0 - - 10 - - - -
30/09:00am 17.3 S 10 12 1027.6 - 0.0 - Mostly clear 10 - - - -
30/08:30am 15.7 SW 6 7 1027.4 - 0.0 - - 10 - - - -
30/07:00am 9.2 WSW 7 7 1027.0 - 0.0 - - 10 - - - -
30/06:30am 8.0 WSW 5 6 1026.9 - 0.0 - - 10 - - - -
30/06:00am 8.5 WSW 5 6 1026.8 - 0.0 - - 10 - - - -
30/05:30am 9.3 SW 6 7 1026.5 - 0.0 - - 10 - - - -
30/05:00am 9.2 SW 6 7 1026.4 - 0.0 - - 10 - - - -
30/04:30am 9.4 SSW 6 7 1026.4 - 0.0 - - 10 - - - -
30/04:00am 9.5 SW 7 8 1026.6 - 0.0 - - 10 - - - -
30/03:30am 9.0 SW 5 7 1027.0 - 0.0 - - 10 - - - -
30/03:00am 9.3 WSW 5 6 1026.9 - 0.0 - - 10 - - - -
30/02:30am 9.8 SW 7 8 1027.1 - 0.0 - - 10 - - - -
30/02:00am 8.2 WSW 6 7 1027.2 - 0.0 - - 10 - - - -
30/01:30am 8.3 W 4 5 1027.5 - 0.0 - - 10 - - - -
30/01:00am 8.5 W 5 6 1028.1 - 0.0 - - 10 - - - -
30/12:30am 10.0 SW 5 6 1028.5 - 0.0 - - 10 - - - -
 
Date/Time
EST
Temp

°C
Wind Pressure Rain
since 9am
mm
Weather Cloud Vis
km
Sea
Height
m
Swell
Dir
 
Speed
knots
Gust
knots
hPa Trend Height
m
Period
s
Dir
29/11:30pm 9.1 WSW 5 6 1028.8 - 0.0 - - 10 - - - -
29/11:00pm 10.2 WSW 5 6 1028.9 - 0.0 - - 10 - - - -
29/10:30pm 10.6 SW 6 6 1029.0 - 0.0 - - 10 - - - -
29/10:00pm 11.2 SW 6 7 1029.0 - 0.0 - - 10 - - - -
29/09:30pm 11.2 SW 6 7 1029.0 - 0.0 - - 10 - - - -
29/09:00pm 11.3 SW 6 8 1029.1 - 0.0 - - 10 - - - -
29/08:30pm 11.7 SW 7 8 1029.1 - 0.0 - - 10 - - - -
29/08:00pm 12.0 SW 6 7 1029.0 - 0.0 - - 10 - - - -
29/07:30pm 12.6 SW 7 8 1028.8 - 0.0 - - 10 - - - -
29/07:00pm 14.8 S 6 8 1028.7 - 0.0 - - 10 - - - -
29/06:30pm 15.8 SSE 7 9 1028.5 - 0.0 - - 10 - - - -
29/06:00pm 16.4 SSE 8 13 1028.1 - 0.0 - - 10 - - - -
29/05:30pm 16.8 SSE 8 11 1028.0 - 0.0 - - 10 - - - -
29/05:00pm 17.1 SE 9 13 1027.9 - 0.0 - Partly cloudy 10 - - - -
29/04:30pm 17.9 SSE 10 13 1027.9 - 0.0 - - 10 - - - -
29/04:00pm 18.6 SSE 11 14 1027.7 - 0.0 - - 10 - - - -
29/03:30pm 19.3 SSE 11 15 1027.8 - 0.0 - - 10 - - - -
29/03:00pm 19.2 SSE 13 17 1027.9 - 0.0 - - 10 - - - -
29/02:30pm 20.0 SSE 12 16 1028.0 - 0.0 - - 10 - - - -
29/02:00pm 20.1 SSE 13 19 1028.2 - 0.0 - - 10 - - - -
29/01:30pm 19.7 SSE 15 20 1028.2 - 0.0 - - 10 - - - -
29/01:00pm 20.3 SSE 15 19 1028.5 - 0.0 - - 10 - - - -
29/12:30pm 20.1 SSE 15 20 1029.0 - 0.0 - - 10 - - - -
29/12:00pm 19.8 SSE 15 20 1029.5 - 0.0 - Partly cloudy 10 - - - -
29/11:30am 19.7 SSE 16 19 1030.0 - 0.0 - - 10 - - - -
29/11:00am 19.8 S 14 20 1030.4 - 0.0 - - 10 - - - -
29/10:30am 18.7 S 15 22 1030.7 - 0.0 - - 10 - - - -
29/10:00am 18.4 S 13 19 1031.0 - 0.0 - - 10 - - - -
29/09:30am 17.3 S 14 19 1031.0 - 0.0 - Partly cloudy 10 - - - -
29/09:00am 15.6 S 14 19 1031.2 - 0.0 - Mostly cloudy 10 - - - -
29/08:30am 15.2 S 12 19 1031.2 - 0.0 - Partly cloudy 10 - - - -
29/08:00am 15.3 S 13 18 1030.9 - 0.0 - - 10 - - - -
29/07:30am 14.6 S 13 17 1030.8 - 0.0 - Partly cloudy 10 - - - -
29/07:00am 13.4 SSW 10 15 1030.5 - 0.0 - Partly cloudy 10 - - - -
29/06:30am 13.1 SSW 10 14 1030.0 - 0.0 - - 10 - - - -
29/06:00am 12.6 SSW 8 13 1029.7 - 0.0 - - 10 - - - -
29/05:30am 10.9 SW 6 8 1029.5 - 0.0 - - 10 - - - -
29/05:00am 11.1 SW 6 8 1029.1 - 0.0 - - 10 - - - -
29/04:30am 13.0 SSW 10 13 1029.1 - 0.0 - - 10 - - - -
29/04:00am 13.2 SSW 9 13 1029.1 - 0.0 - - 10 - - - -
29/03:30am 13.1 S 10 12 1029.2 - 0.0 - - 10 - - - -
29/03:00am 13.3 SSW 12 17 1029.3 - 0.0 - - 10 - - - -
29/02:30am 12.9 SSW 11 15 1029.5 - 0.0 - - 10 - - - -
29/02:00am 11.9 SW 8 11 1029.4 - 0.0 - - 10 - - - -
29/01:30am 12.6 SSW 8 13 1029.6 - 0.0 - Partly cloudy 10 - - - -
29/01:00am 13.6 SSW 9 13 1029.8 - 0.0 - Cloudy 10 - - - -
29/12:30am 13.3 SSW 11 15 1029.7 - 0.0 - Partly cloudy 10 - - - -
29/12:00am 14.3 SSW 11 16 1029.6 - 0.0 - Cloudy 10 - - - -
 
Date/Time
EST
Temp

°C
Wind Pressure Rain
since 9am
mm
Weather Cloud Vis
km
Sea
Height
m
Swell
Dir
 
Speed
knots
Gust
knots
hPa Trend Height
m
Period
s
Dir
28/11:30pm 14.5 S 11 14 1029.7 - 0.0 - Partly cloudy 10 - - - -
28/11:00pm 14.5 SSW 6 9 1029.9 - 0.0 - Cloudy 10 - - - -
28/10:30pm 14.5 SSW 8 11 1030.1 - 0.0 - Partly cloudy 10 - - - -
28/10:00pm 12.5 WSW 5 6 1030.1 - 0.0 - Partly cloudy 10 - - - -
28/09:30pm 11.8 SW 4 5 1030.0 - 0.0 - Partly cloudy 10 - - - -
28/09:00pm 11.4 WSW 6 7 1030.1 - 0.0 - - 10 - - - -
28/08:30pm 11.6 WSW 4 5 1030.0 - 0.0 - Partly cloudy 10 - - - -
28/08:00pm 12.3 SW 5 6 1029.8 - 0.0 - Partly cloudy 10 - - - -
28/07:30pm 12.1 SW 5 6 1029.6 - 0.0 - - 10 - - - -
28/07:00pm 13.0 SW 6 7 1029.3 - 0.0 - Partly cloudy 10 - - - -
28/06:30pm 14.1 SW 6 7 1029.1 - 0.0 - Partly cloudy 10 - - - -
28/06:00pm 16.5 SSE 8 12 1028.6 - 0.0 - Partly cloudy 10 - - - -
28/05:30pm 16.8 SE 10 13 1028.2 - 0.0 - Partly cloudy 10 - - - -
28/05:00pm 16.9 SE 10 14 1028.2 - 0.0 - Partly cloudy 10 - - - -
28/04:30pm 17.5 SSE 11 16 1028.0 - 0.0 - Partly cloudy 10 - - - -
28/04:00pm 17.6 SE 11 16 1027.9 - 0.0 - Partly cloudy 10 - - - -
28/03:30pm 18.4 SSE 13 17 1027.6 - 0.0 - Partly cloudy 10 - - - -
28/03:00pm 19.1 SSE 14 20 1027.5 - 0.0 - Mostly cloudy 10 - - - -
28/02:30pm 18.4 SSE 13 18 1027.5 - 0.0 - Partly cloudy 10 - - - -
28/02:00pm 18.7 SSE 13 18 1027.7 - 0.0 - Partly cloudy 10 - - - -
28/01:30pm 19.4 SSE 13 18 1027.8 - 0.0 - - 10 - - - -
28/01:00pm 19.5 SSE 16 20 1028.0 - 0.0 - Cloudy 10 - - - -
28/12:30pm 19.3 SSE 15 20 1028.3 - 0.0 - Partly cloudy 10 - - - -
28/12:00pm 18.4 SSE 13 17 1028.5 - 0.0 - Cloudy 10 - - - -
28/11:30am 19.6 SSE 15 21 1028.7 - 0.0 - Partly cloudy 10 - - - -
28/11:00am 19.6 S 15 19 1029.0 - 0.0 - Partly cloudy 10 - - - -
28/10:30am 19.6 S 12 17 1029.2 - 0.0 - - 10 - - - -
28/10:00am 18.3 S 14 18 1029.3 - 0.0 - Partly cloudy 10 - - - -
28/09:00am 17.3 S 14 19 1029.0 - 0.0 - - 10 - - - -
28/08:30am 16.2 S 14 21 1028.6 - 0.0 - - 10 - - - -
28/08:00am 15.6 S 13 17 1028.5 - 0.0 - Partly cloudy 10 - - - -
28/07:30am 14.8 SSW 11 14 1028.3 - 0.0 - Partly cloudy 10 - - - -
28/07:00am 14.2 SSW 10 13 1027.9 - 0.0 - Partly cloudy 10 - - - -
28/06:30am 14.2 SSW 10 13 1027.4 - 0.0 - Partly cloudy 10 - - - -
28/06:00am 14.2 SSW 9 13 1027.1 - 0.0 - Cloudy 10 - - - -
28/05:30am 14.0 SSW 11 15 1026.7 - 0.0 - Partly cloudy 10 - - - -
28/05:00am 13.9 SSW 12 17 1026.4 - 0.0 - Partly cloudy 10 - - - -
28/04:30am 12.8 SW 7 10 1026.3 - 0.0 - - 10 - - - -
28/04:00am 12.8 SW 7 9 1026.0 - 0.0 - - 10 - - - -
28/03:30am 12.3 SW 8 11 1025.9 - 0.0 - - 10 - - - -
28/03:00am 12.9 SW 10 13 1025.7 - 0.0 - - 10 - - - -
28/02:30am 12.3 SW 8 10 1025.6 - 0.0 - - 10 - - - -
28/02:00am 11.7 SW 5 7 1025.7 - 0.0 - - 10 - - - -
28/01:30am 12.2 SW 7 9 1025.7 - 0.0 - - 10 - - - -
28/01:00am 12.3 SW 7 9 1026.0 - 0.0 - - 10 - - - -
28/12:30am 12.6 SW 9 11 1025.8 - 0.0 - - 10 - - - -
28/12:00am 12.7 WSW 7 9 1025.8 - 0.0 - - 10 - - - -
 
Date/Time
EST
Temp

°C
Wind Pressure Rain
since 9am
mm
Weather Cloud Vis
km
Sea
Height
m
Swell
Dir
 
Speed
knots
Gust
knots
hPa Trend Height
m
Period
s
Dir
27/11:30pm 13.3 WSW 7 10 1026.0 - 0.0 - - 10 - - - -
27/11:00pm 13.7 SW 9 11 1026.0 - 0.0 - - 10 - - - -
27/10:30pm 14.6 SSW 10 14 1026.1 - 0.0 - - 10 - - - -
27/10:00pm 13.8 SSW 5 7 1026.1 - 0.0 - - 10 - - - -
27/09:30pm 14.1 SSW 1 5 1025.8 - 0.0 - - 10 - - - -
27/09:00pm 14.6 SSW 7 9 1025.3 - 0.0 - - 10 - - - -
27/08:30pm 13.9 WSW 5 6 1025.0 - 0.0 - - 10 - - - -
27/08:00pm 13.8 WSW 5 6 1024.7 - 0.0 - - 10 - - - -
27/07:30pm 13.7 WSW 5 5 1024.5 - 0.0 - - 10 - - - -
27/07:00pm 14.5 WSW 5 6 1024.3 - 0.0 - - 10 - - - -
27/06:30pm 14.2 W 3 4 1023.9 - 0.0 - - 10 - - - -
27/06:00pm 16.7 WSW 6 8 1023.4 - 0.0 - - 10 - - - -
27/05:30pm 17.6 WSW 5 7 1022.9 - 0.0 - - 10 - - - -
27/05:00pm 18.7 SW 5 7 1022.4 - 0.0 - - 10 - - - -
27/04:30pm 20.4 SW 7 9 1022.1 - 0.0 - - 10 - - - -
27/04:00pm 21.2 WSW 5 7 1021.7 - 0.0 - - 10 - - - -
27/03:30pm 21.7 SW 8 12 1021.5 - 0.0 - - 10 - - - -
27/03:00pm 22.1 SSW 9 13 1021.3 - 0.0 - - 10 - - - -
27/02:30pm 23.1 SSW 8 13 1021.4 - 0.0 - - 10 - - - -
27/02:00pm 23.1 SSW 8 13 1021.4 - 0.0 - - 10 - - - -
27/01:30pm 23.7 WSW 8 13 1021.6 - 0.0 - - 10 - - - -
27/01:00pm 24.0 WSW 8 11 1021.8 - 0.0 - - 10 - - - -
27/12:30pm 23.3 SSW 9 14 1022.1 - 0.0 - - 10 - - - -

Other Formats:

Comma delimited format used in spreadsheet applications
http://www.bom.gov.au/fwo/IDQ60701/IDQ60701.94569.axf

JavaScript Object Notation format (JSON) in row-major order
http://www.bom.gov.au/fwo/IDQ60701/IDQ60701.94569.json